Time;durP1;ratioP1;P1;durP2;ratioP2;P2;SDS_P1;SDS_P2;PMS_P1;PMS_P2;Temp;Humidity;BMP_temperature;BMP_pressure;BME280_temperature;BME280_humidity;BME280_pressure;Samples;Min_cycle;Max_cycle;Signal;HPM_P1;HPM_P2
2021/06/14 00:00:59;;;;;;;;;;;;;;;20.43;66.82;100704.53;5058237;28;1397;-44
2021/06/14 00:03:28;;;;;;;;;;;;;;;20.42;67.38;100707.38;5057427;28;2112;-44
2021/06/14 00:05:56;;;;;;;;;;;;;;;20.43;66.47;100714.41;5053198;28;1988;-44
2021/06/14 00:08:27;;;;;;;;;;;;;;;20.41;66.90;100727.13;5049733;28;1461;-44
2021/06/14 00:10:55;;;;;;;;;;;;;;;20.42;67.39;100715.41;5057987;28;2015;-44
2021/06/14 00:13:24;;;;;;;;;;;;;;;20.44;66.71;100721.50;5052054;28;1743;-43
2021/06/14 00:15:51;;;;;;;;;;;;;;;20.37;66.39;100706.94;5053521;28;1935;-44
2021/06/14 00:18:18;;;;;;;;;;;;;;;20.37;66.58;100713.19;5053665;28;1835;-44
2021/06/14 00:20:51;;;;;;;;;;;;;;;20.35;66.83;100703.56;5055605;28;2452;-44
2021/06/14 00:23:20;;;;;;;;;;;;;;;20.35;67.48;100707.13;5067856;28;1777;-43
2021/06/14 00:25:48;;;;;;;;;;;;;;;20.33;67.63;100714.44;5055914;28;1668;-44
2021/06/14 00:28:17;;;;;;;;;;;;;;;20.34;66.54;100709.94;5044734;28;1607;-43
2021/06/14 00:30:45;;;;;;;;;;;;;;;20.36;66.22;100713.31;5052749;28;1964;-43
2021/06/14 00:33:20;;;;;;;;;;;;;;;20.32;66.18;100690.44;5059283;28;1759;-43
2021/06/14 00:35:51;;;;;;;;;;;;;;;20.35;67.31;100698.19;5058865;28;1760;-44
2021/06/14 00:38:21;;;;;;;;;;;;;;;20.35;66.24;100698.19;5060066;28;1819;-43
2021/06/14 00:40:54;;;;;;;;;;;;;;;20.34;66.53;100689.28;5049226;28;1966;-44
2021/06/14 00:43:24;;;;;;;;;;;;;;;20.31;67.27;100684.19;5067726;28;1069;-44
2021/06/14 00:45:52;;;;;;;;;;;;;;;20.33;67.07;100702.84;5063616;28;1782;-43
2021/06/14 00:48:20;;;;;;;;;;;;;;;20.32;66.38;100696.66;5050995;28;2050;-44
2021/06/14 00:50:56;;;;;;;;;;;;;;;20.30;66.78;100690.56;5052019;28;2194;-44
2021/06/14 00:53:24;;;;;;;;;;;;;;;20.28;67.18;100689.88;5048859;28;1560;-44
2021/06/14 00:55:54;;;;;;;;;;;;;;;20.30;66.46;100681.69;5062942;28;1601;-43
2021/06/14 00:58:21;;;;;;;;;;;;;;;20.30;66.41;100677.16;5073361;28;1083;-44
2021/06/14 01:00:49;;;;;;;;;;;;;;;20.31;66.13;100677.97;5044434;28;2095;-43
2021/06/14 01:03:17;;;;;;;;;;;;;;;20.33;66.86;100686.75;5059824;28;1968;-43
2021/06/14 01:05:47;;;;;;;;;;;;;;;20.29;66.52;100672.75;5047581;28;1508;-44
2021/06/14 01:08:22;;;;;;;;;;;;;;;20.27;66.92;100667.56;5052728;28;1805;-43
2021/06/14 01:10:50;;;;;;;;;;;;;;;20.30;65.84;100681.69;5051989;28;1768;-43
2021/06/14 01:13:24;;;;;;;;;;;;;;;20.31;66.98;100677.97;5054000;28;1076;-43
2021/06/14 01:16:17;;;;;;;;;;;;;;;20.29;66.98;100674.59;5052560;28;2761;-44
2021/06/14 01:21:35;;;;;;;;;;;;;;;20.26;67.03;100676.59;5040722;28;2679;-44
2021/06/14 01:24:24;;;;;;;;;;;;;;;20.28;65.94;100673.75;5053191;28;1074;-44
2021/06/14 01:27:00;;;;;;;;;;;;;;;20.25;66.57;100658.78;4970130;28;1531;-44
2021/06/14 01:29:35;;;;;;;;;;;;;;;20.26;66.10;100670.38;4971279;28;1789;-44
2021/06/14 01:32:03;;;;;;;;;;;;;;;20.26;65.67;100681.97;4964794;28;1718;-43
2021/06/14 01:34:34;;;;;;;;;;;;;;;20.21;66.38;100667.28;4971447;28;1618;-44
2021/06/14 01:37:06;;;;;;;;;;;;;;;20.19;66.48;100664.75;4979043;28;1625;-43
2021/06/14 01:39:40;;;;;;;;;;;;;;;20.18;66.99;100668.41;5043885;28;1906;-44
2021/06/14 01:42:09;;;;;;;;;;;;;;;20.17;66.08;100661.34;5043419;28;1615;-43
2021/06/14 01:44:43;;;;;;;;;;;;;;;20.22;66.63;100659.06;5047645;28;1696;-44
2021/06/14 01:47:10;;;;;;;;;;;;;;;20.20;65.36;100669.13;5055508;28;1675;-44
2021/06/14 01:49:41;;;;;;;;;;;;;;;20.24;65.35;100662.47;5056350;28;1691;-43
2021/06/14 01:52:07;;;;;;;;;;;;;;;20.25;65.77;100677.59;5048438;28;1566;-44
2021/06/14 01:54:36;;;;;;;;;;;;;;;20.19;66.10;100664.75;5054826;28;1720;-44
2021/06/14 01:57:05;;;;;;;;;;;;;;;20.21;66.10;100657.41;5048319;28;1146;-44
2021/06/14 01:59:41;;;;;;;;;;;;;;;20.21;65.44;100669.97;5055771;28;1906;-44
2021/06/14 02:02:17;;;;;;;;;;;;;;;20.19;65.59;100678.19;5064879;23;3779;-80
2021/06/14 02:04:52;;;;;;;;;;;;;;;20.21;65.39;100681.56;5061773;28;1816;-82
2021/06/14 02:07:21;;;;;;;;;;;;;;;20.19;65.75;100670.13;5059710;28;1526;-80
2021/06/14 02:09:51;;;;;;;;;;;;;;;20.18;65.92;100679.16;5059898;28;1582;-77
2021/06/14 02:12:18;;;;;;;;;;;;;;;20.17;66.44;100674.75;5056158;28;1501;-80
2021/06/14 02:14:47;;;;;;;;;;;;;;;20.17;65.23;100673.94;5056944;28;1637;-84
2021/06/14 02:17:16;;;;;;;;;;;;;;;20.18;66.33;100686.38;5050753;28;1631;-80
2021/06/14 02:19:43;;;;;;;;;;;;;;;20.18;66.19;100689.91;5054587;28;1973;-80
2021/06/14 02:22:16;;;;;;;;;;;;;;;20.18;66.64;100691.75;5048403;28;1597;-83
2021/06/14 02:24:44;;;;;;;;;;;;;;;20.16;65.78;100669.56;5070912;28;1687;-82
2021/06/14 02:27:11;;;;;;;;;;;;;;;20.15;64.93;100675.91;5070424;28;1577;-81
2021/06/14 02:29:37;;;;;;;;;;;;;;;20.14;66.35;100658.13;5064630;28;1712;-79
2021/06/14 02:32:10;;;;;;;;;;;;;;;20.14;66.74;100660.81;5057335;28;1510;-84
2021/06/14 02:34:50;;;;;;;;;;;;;;;20.16;65.80;100654.28;5061807;28;1557;-84
2021/06/14 02:37:33;;;;;;;;;;;;;;;20.15;65.35;100666.00;5049052;28;1686;-82
2021/06/14 02:40:00;;;;;;;;;;;;;;;20.16;65.33;100659.66;5047940;28;1977;-80
2021/06/14 02:42:27;;;;;;;;;;;;;;;20.14;65.93;100672.38;5051488;28;1491;-80
2021/06/14 02:45:00;;;;;;;;;;;;;;;20.14;65.43;100664.34;5054002;28;1669;-83
2021/06/14 02:47:36;;;;;;;;;;;;;;;20.13;65.40;100673.38;5051802;28;1585;-84
2021/06/14 02:50:05;;;;;;;;;;;;;;;20.18;66.14;100671.09;5061250;28;1671;-79
2021/06/14 02:52:34;;;;;;;;;;;;;;;20.19;65.11;100664.75;5064955;28;1690;-79
2021/06/14 02:55:04;;;;;;;;;;;;;;;20.20;65.44;100676.34;5074909;28;1632;-83
2021/06/14 02:57:31;;;;;;;;;;;;;;;20.16;64.40;100654.28;5059906;28;1627;-83
2021/06/14 02:59:59;;;;;;;;;;;;;;;20.17;64.69;100677.44;5068718;28;1969;-79
2021/06/14 03:02:27;;;;;;;;;;;;;;;20.12;64.56;100681.59;5063749;28;1729;-82
2021/06/14 03:04:54;;;;;;;;;;;;;;;20.11;65.34;100671.81;5058368;28;1621;-80
2021/06/14 03:07:41;;;;;;;;;;;;;;;20.09;64.62;100677.34;5073933;28;1600;-84
2021/06/14 03:10:10;;;;;;;;;;;;;;;20.05;64.93;100663.38;5064100;28;1743;-80
2021/06/14 03:12:37;;;;;;;;;;;;;;;20.09;64.68;100673.81;5039663;28;1739;-82
2021/06/14 03:15:04;;;;;;;;;;;;;;;20.13;64.97;100677.91;5050051;28;1685;-78
2021/06/14 03:17:31;;;;;;;;;;;;;;;20.10;65.20;100662.09;5051886;28;1529;-79
2021/06/14 03:19:58;;;;;;;;;;;;;;;20.11;64.53;100658.41;5066288;28;1969;-79
2021/06/14 03:22:25;;;;;;;;;;;;;;;20.13;64.50;100653.72;5060481;28;1594;-80
2021/06/14 03:24:51;;;;;;;;;;;;;;;20.15;65.14;100668.69;5063265;28;1500;-80
2021/06/14 03:27:20;;;;;;;;;;;;;;;20.15;65.45;100655.28;5059398;28;1669;-79
2021/06/14 03:29:50;;;;;;;;;;;;;;;20.19;64.68;100661.19;5058424;28;1604;-80
2021/06/14 03:32:19;;;;;;;;;;;;;;;20.18;63.91;100657.69;5056434;28;1433;-84
2021/06/14 03:34:48;;;;;;;;;;;;;;;20.20;64.56;100647.63;5055030;28;1588;-80
2021/06/14 03:37:17;;;;;;;;;;;;;;;20.20;64.52;100654.84;5057446;28;1461;-78
2021/06/14 03:39:43;;;;;;;;;;;;;;;20.26;65.74;100656.94;5050497;28;1975;-82
2021/06/14 03:42:17;;;;;;;;;;;;;;;20.30;63.99;100660.19;5051865;28;1630;-79
2021/06/14 03:44:45;;;;;;;;;;;;;;;20.31;64.53;100645.75;5059552;28;1691;-77
2021/06/14 03:47:12;;;;;;;;;;;;;;;20.36;64.80;100648.88;5046823;28;1972;-80
2021/06/14 03:49:39;;;;;;;;;;;;;;;20.43;64.20;100641.88;5061914;28;1587;-80
2021/06/14 03:52:06;;;;;;;;;;;;;;;20.51;64.41;100655.41;5056719;28;1487;-78
2021/06/14 03:54:32;;;;;;;;;;;;;;;20.56;64.10;100649.63;5063389;22;3766;-44
2021/06/14 03:56:59;;;;;;;;;;;;;;;20.52;64.75;100664.34;5054746;28;1583;-44
2021/06/14 03:59:26;;;;;;;;;;;;;;;20.51;64.04;100650.06;5058644;28;2304;-44
2021/06/14 04:01:54;;;;;;;;;;;;;;;20.51;64.28;100646.53;5053083;28;1901;-43
2021/06/14 04:04:37;;;;;;;;;;;;;;;20.55;64.73;100643.41;5041554;28;1612;-44
2021/06/14 04:07:03;;;;;;;;;;;;;;;20.58;63.96;100655.69;5039064;28;1564;-44
2021/06/14 04:09:30;;;;;;;;;;;;;;;20.61;64.51;100653.59;5031130;28;1523;-44
2021/06/14 04:11:56;;;;;;;;;;;;;;;20.64;63.96;100647.91;5032740;28;1681;-44
2021/06/14 04:14:23;;;;;;;;;;;;;;;20.66;63.56;100651.28;5035537;28;1644;-44
2021/06/14 04:16:49;;;;;;;;;;;;;;;20.36;62.00;100633.59;5035766;28;1928;-44
2021/06/14 04:19:17;;;;;;;;;;;;;;;20.42;62.86;100633.00;5040692;28;1599;-43
2021/06/14 04:21:43;;;;;;;;;;;;;;;20.45;61.57;100651.50;5040846;28;1914;-44
2021/06/14 04:24:10;;;;;;;;;;;;;;;20.38;61.85;100636.13;5041239;28;1146;-44
2021/06/14 04:26:36;;;;;;;;;;;;;;;20.47;60.41;100648.66;5038090;28;1662;-44
2021/06/14 04:29:03;;;;;;;;;;;;;;;20.39;61.04;100638.69;5036725;28;1559;-44
2021/06/14 04:31:30;;;;;;;;;;;;;;;20.45;60.17;100638.09;5036047;28;1528;-44
2021/06/14 04:33:57;;;;;;;;;;;;;;;20.43;59.96;100652.63;5040406;28;1099;-44
2021/06/14 04:36:24;;;;;;;;;;;;;;;20.55;60.42;100658.66;5039368;28;1750;-45
2021/06/14 04:38:51;;;;;;;;;;;;;;;20.69;60.79;100655.53;5039354;28;1770;-44
2021/06/14 04:41:17;;;;;;;;;;;;;;;20.74;61.54;100641.66;5038097;28;1977;-45
2021/06/14 04:43:44;;;;;;;;;;;;;;;20.69;62.48;100643.94;5037074;28;1479;-45
2021/06/14 04:46:10;;;;;;;;;;;;;;;20.68;61.66;100648.47;5046395;28;1432;-44
2021/06/14 04:48:37;;;;;;;;;;;;;;;20.70;60.23;100641.09;5039009;28;1853;-45
2021/06/14 04:51:03;;;;;;;;;;;;;;;20.78;62.39;100654.63;5039171;28;1793;-44
2021/06/14 04:53:31;;;;;;;;;;;;;;;20.92;62.74;100644.38;5043843;28;1778;-45
2021/06/14 04:55:58;;;;;;;;;;;;;;;20.90;63.02;100654.44;5035361;28;1476;-44
2021/06/14 04:58:24;;;;;;;;;;;;;;;20.83;62.76;100635.34;5038987;28;1254;-45
2021/06/14 05:00:51;;;;;;;;;;;;;;;20.83;63.61;100646.09;5036436;28;1906;-44
2021/06/14 05:03:17;;;;;;;;;;;;;;;20.85;63.27;100641.44;5036124;28;1698;-44
2021/06/14 05:05:44;;;;;;;;;;;;;;;20.88;63.36;100649.19;5037443;28;1547;-44
2021/06/14 05:08:12;;;;;;;;;;;;;;;21.00;62.67;100636.38;5040225;28;2040;-46
2021/06/14 05:10:40;;;;;;;;;;;;;;;21.05;62.79;100656.44;5040670;28;1825;-44
2021/06/14 05:13:06;;;;;;;;;;;;;;;21.13;62.84;100647.63;5036875;28;1384;-44
2021/06/14 05:15:33;;;;;;;;;;;;;;;21.08;61.55;100638.31;5036611;28;2129;-44
2021/06/14 05:17:59;;;;;;;;;;;;;;;21.21;61.38;100644.19;5040886;28;1632;-44
2021/06/14 05:20:29;;;;;;;;;;;;;;;21.30;62.30;100658.53;5039580;28;1989;-45
2021/06/14 05:22:56;;;;;;;;;;;;;;;21.50;61.47;100648.50;5045048;28;1817;-44
2021/06/14 05:25:22;;;;;;;;;;;;;;;21.20;61.50;100648.69;5044768;28;1749;-44
2021/06/14 05:27:50;;;;;;;;;;;;;;;21.30;61.66;100648.63;5039259;28;1425;-44
2021/06/14 05:30:17;;;;;;;;;;;;;;;21.38;61.59;100650.53;5040782;28;1869;-44
2021/06/14 05:32:44;;;;;;;;;;;;;;;21.33;61.65;100644.78;5045709;28;1515;-45
2021/06/14 05:35:10;;;;;;;;;;;;;;;21.29;60.78;100652.31;5039202;28;1479;-44
2021/06/14 05:37:37;;;;;;;;;;;;;;;21.22;61.56;100645.84;5046747;28;1558;-44
2021/06/14 05:40:04;;;;;;;;;;;;;;;21.20;61.69;100650.53;5040388;28;1976;-44
2021/06/14 05:42:31;;;;;;;;;;;;;;;21.21;61.27;100638.81;5044854;28;1130;-44
2021/06/14 05:44:59;;;;;;;;;;;;;;;21.17;62.20;100649.00;5047860;28;2006;-44
2021/06/14 05:47:25;;;;;;;;;;;;;;;21.04;61.74;100641.31;5044209;28;1548;-45
2021/06/14 05:49:52;;;;;;;;;;;;;;;21.10;62.23;100639.00;5041143;28;1524;-44
2021/06/14 05:52:18;;;;;;;;;;;;;;;21.17;61.36;100642.75;5039196;28;1553;-44
2021/06/14 05:54:45;;;;;;;;;;;;;;;21.16;62.33;100644.63;5036061;28;1595;-45
2021/06/14 05:57:11;;;;;;;;;;;;;;;21.16;61.41;100641.94;5033792;28;1315;-44
2021/06/14 05:59:38;;;;;;;;;;;;;;;21.13;61.78;100647.63;5039868;28;1604;-44
2021/06/14 06:02:07;;;;;;;;;;;;;;;21.14;60.92;100635.03;5040468;28;1975;-43
2021/06/14 06:04:33;;;;;;;;;;;;;;;21.15;60.52;100634.00;5044962;28;1523;-44
2021/06/14 06:07:00;;;;;;;;;;;;;;;21.11;61.41;100636.19;5043027;28;1801;-44
2021/06/14 06:09:26;;;;;;;;;;;;;;;21.10;61.04;100623.72;5040302;28;1868;-44
2021/06/14 06:11:53;;;;;;;;;;;;;;;21.07;60.41;100629.41;5043461;28;1441;-44
2021/06/14 06:14:19;;;;;;;;;;;;;;;21.09;60.57;100623.88;5051346;28;1947;-44
2021/06/14 06:16:46;;;;;;;;;;;;;;;21.08;61.16;100623.03;5042221;28;1463;-45
2021/06/14 06:19:14;;;;;;;;;;;;;;;21.02;61.79;100621.78;5043246;28;1577;-45
2021/06/14 06:21:40;;;;;;;;;;;;;;;21.08;59.94;100627.56;5042281;28;1918;-44
2021/06/14 06:24:07;;;;;;;;;;;;;;;21.13;60.26;100625.25;5043609;28;1091;-44
2021/06/14 06:26:33;;;;;;;;;;;;;;;21.12;60.40;100634.34;5044588;28;1926;-44
2021/06/14 06:29:00;;;;;;;;;;;;;;;21.11;59.61;100632.63;5035356;28;1798;-44
2021/06/14 06:31:26;;;;;;;;;;;;;;;21.10;59.75;100630.94;5041493;28;1663;-44
2021/06/14 06:33:53;;;;;;;;;;;;;;;21.10;59.99;100625.56;5037039;28;1851;-44
2021/06/14 06:36:21;;;;;;;;;;;;;;;21.13;60.38;100625.25;5041432;28;1984;-44
2021/06/14 06:38:47;;;;;;;;;;;;;;;21.12;59.47;100627.09;5049335;28;1734;-44
2021/06/14 06:41:14;;;;;;;;;;;;;;;21.12;60.05;100632.47;5040094;28;1909;-44
2021/06/14 06:43:40;;;;;;;;;;;;;;;21.10;59.34;100606.75;5050237;28;1772;-44
2021/06/14 06:46:07;;;;;;;;;;;;;;;21.13;60.57;100625.25;5043456;28;1082;-44
2021/06/14 06:48:33;;;;;;;;;;;;;;;21.16;58.73;100624.97;5046956;28;1569;-44
2021/06/14 06:51:00;;;;;;;;;;;;;;;21.17;60.57;100623.94;5037947;28;1507;-44
2021/06/14 06:53:28;;;;;;;;;;;;;;;21.13;58.56;100628.81;5037902;28;1968;-45
2021/06/14 06:55:55;;;;;;;;;;;;;;;21.09;58.44;100634.63;5024121;28;1639;-43
2021/06/14 06:58:22;;;;;;;;;;;;;;;21.12;57.86;100624.41;5024785;28;1511;-43
2021/06/14 07:00:49;;;;;;;;;;;;;;;21.08;58.76;100639.16;5021679;28;1910;-44
2021/06/14 07:03:16;;;;;;;;;;;;;;;21.10;58.45;100625.56;5022249;28;1984;-44
2021/06/14 07:05:43;;;;;;;;;;;;;;;21.18;60.41;100644.47;5022037;28;3010;-44
2021/06/14 07:08:10;;;;;;;;;;;;;;;21.20;59.25;100621.78;5021900;28;1829;-44
2021/06/14 07:10:38;;;;;;;;;;;;;;;21.22;60.08;100633.25;5023427;28;1631;-44
2021/06/14 07:13:05;;;;;;;;;;;;;;;21.24;59.37;100638.47;5010481;28;1656;-44
2021/06/14 07:15:32;;;;;;;;;;;;;;;21.27;59.90;100632.81;5023313;28;1591;-44
2021/06/14 07:17:58;;;;;;;;;;;;;;;21.29;60.59;100629.94;5021021;28;1826;-44
2021/06/14 07:20:25;;;;;;;;;;;;;;;21.33;59.59;100634.00;5023568;28;1603;-44
2021/06/14 07:22:51;;;;;;;;;;;;;;;21.30;60.77;100631.66;5021329;28;1906;-44
2021/06/14 07:25:18;;;;;;;;;;;;;;;21.31;59.72;100628.81;5020151;28;1968;-44
2021/06/14 07:27:46;;;;;;;;;;;;;;;21.31;60.43;100634.19;5022593;28;1429;-44
2021/06/14 07:30:14;;;;;;;;;;;;;;;21.32;59.98;100627.78;5019600;28;1645;-44
2021/06/14 07:32:41;;;;;;;;;;;;;;;21.36;60.71;100623.78;5018471;28;1551;-44
2021/06/14 07:35:08;;;;;;;;;;;;;;;21.34;59.94;100641.94;5026143;28;1505;-44
2021/06/14 07:37:34;;;;;;;;;;;;;;;21.34;60.74;100630.34;5017116;28;1668;-44
2021/06/14 07:40:01;;;;;;;;;;;;;;;21.36;60.56;100644.47;5022306;28;1761;-44
2021/06/14 07:42:28;;;;;;;;;;;;;;;21.34;58.80;100639.25;5017432;28;1883;-44
2021/06/14 07:44:55;;;;;;;;;;;;;;;21.33;59.58;100636.69;5018305;28;1655;-44
2021/06/14 07:47:22;;;;;;;;;;;;;;;21.35;59.11;100642.81;5019948;28;1504;-44
2021/06/14 07:49:48;;;;;;;;;;;;;;;21.31;60.38;100634.19;5028989;28;1675;-44
2021/06/14 07:52:15;;;;;;;;;;;;;;;21.37;59.67;100643.50;5016957;28;1730;-44
2021/06/14 07:54:41;;;;;;;;;;;;;;;21.38;59.57;100645.16;5020478;28;1548;-44
2021/06/14 07:57:08;;;;;;;;;;;;;;;21.40;60.10;100613.56;5025672;28;1543;-44
2021/06/14 07:59:35;;;;;;;;;;;;;;;21.39;59.31;100626.19;5025067;28;1498;-44
2021/06/14 08:02:03;;;;;;;;;;;;;;;21.41;59.30;100643.03;5018974;28;1967;-44
2021/06/14 08:04:29;;;;;;;;;;;;;;;21.44;59.23;100634.66;5028482;28;1534;-45
2021/06/14 08:06:56;;;;;;;;;;;;;;;21.45;59.91;100636.34;5025469;28;1670;-44
2021/06/14 08:09:27;;;;;;;;;;;;;;;21.43;59.16;100626.75;5021024;28;1725;-44
2021/06/14 08:11:54;;;;;;;;;;;;;;;21.37;59.50;100624.66;5021471;28;1949;-44
2021/06/14 08:14:21;;;;;;;;;;;;;;;21.35;60.14;100637.41;5030460;28;1847;-44
2021/06/14 08:16:47;;;;;;;;;;;;;;;21.38;59.96;100645.16;5021714;28;1609;-44
2021/06/14 08:19:20;;;;;;;;;;;;;;;21.38;59.34;100634.41;5022768;28;1653;-44
2021/06/14 08:22:09;;;;;;;;;;;;;;;21.39;60.05;100641.50;5022491;28;1989;-43
2021/06/14 08:27:18;;;;;;;;;;;;;;;21.43;59.09;100627.59;5009080;28;2088;-45
2021/06/14 08:29:45;;;;;;;;;;;;;;;21.41;60.25;100616.13;5025412;28;1913;-44
2021/06/14 08:32:11;;;;;;;;;;;;;;;21.41;60.19;100634.13;5027901;28;1878;-44
2021/06/14 08:34:39;;;;;;;;;;;;;;;21.50;59.74;100632.34;5014824;28;1718;-43
2021/06/14 08:37:06;;;;;;;;;;;;;;;21.42;59.88;100642.00;5026859;28;1729;-44
2021/06/14 08:39:32;;;;;;;;;;;;;;;21.36;60.32;100637.25;5026669;28;1512;-44
2021/06/14 08:42:00;;;;;;;;;;;;;;;21.32;60.91;100635.88;5022881;28;1906;-44
2021/06/14 08:44:27;;;;;;;;;;;;;;;21.29;60.55;100636.19;5030502;28;1736;-43
2021/06/14 08:46:55;;;;;;;;;;;;;;;21.27;61.43;100638.19;5021223;28;1725;-44
2021/06/14 08:49:21;;;;;;;;;;;;;;;21.28;60.96;100634.47;5022700;28;2325;-44
2021/06/14 08:51:49;;;;;;;;;;;;;;;21.28;61.15;100637.16;5023060;28;2222;-43
2021/06/14 08:54:16;;;;;;;;;;;;;;;21.29;60.64;100640.69;5033444;28;1636;-44
2021/06/14 08:56:42;;;;;;;;;;;;;;;21.30;60.78;100637.88;5041877;28;1623;-44
2021/06/14 08:59:09;;;;;;;;;;;;;;;21.24;61.50;100635.78;5033058;28;1690;-43
2021/06/14 09:01:35;;;;;;;;;;;;;;;21.24;61.09;100625.88;5047321;28;1930;-44
2021/06/14 09:04:02;;;;;;;;;;;;;;;21.25;61.31;100634.81;5040655;28;1639;-44
2021/06/14 09:06:28;;;;;;;;;;;;;;;21.26;62.08;100639.16;5042216;28;1447;-43
2021/06/14 09:08:57;;;;;;;;;;;;;;;21.25;62.36;100634.81;5040655;28;1755;-43
2021/06/14 09:11:23;;;;;;;;;;;;;;;21.29;61.47;100635.31;5040344;28;1663;-43
2021/06/14 09:13:50;;;;;;;;;;;;;;;21.23;60.33;100632.25;5051169;28;1818;-44
2021/06/14 09:16:16;;;;;;;;;;;;;;;21.25;61.32;100619.50;5040519;28;1549;-44
2021/06/14 09:18:44;;;;;;;;;;;;;;;21.23;61.54;100642.19;5043299;28;1366;-43
2021/06/14 09:21:11;;;;;;;;;;;;;;;21.26;61.00;100634.63;5037172;28;1965;-44
2021/06/14 09:23:42;;;;;;;;;;;;;;;21.28;60.78;100629.09;5036862;28;1681;-43
2021/06/14 09:26:23;;;;;;;;;;;;;;;21.24;61.55;100628.56;5037348;28;1524;-43
2021/06/14 09:28:50;;;;;;;;;;;;;;;21.27;60.75;100630.13;5020986;28;1485;-43
2021/06/14 09:31:17;;;;;;;;;;;;;;;21.24;62.00;100625.03;5044264;28;1469;-43
2021/06/14 09:33:44;;;;;;;;;;;;;;;21.23;60.80;100612.59;5038239;28;1807;-44
2021/06/14 09:36:11;;;;;;;;;;;;;;;21.23;60.99;100620.66;5043777;28;1717;-44
2021/06/14 09:38:37;;;;;;;;;;;;;;;21.23;60.93;100616.13;5039796;28;1770;-44
2021/06/14 09:41:10;;;;;;;;;;;;;;;21.23;60.82;100623.34;5034985;28;1542;-43
2021/06/14 09:43:37;;;;;;;;;;;;;;;21.21;61.86;100612.75;5048735;28;2390;-43
2021/06/14 09:46:05;;;;;;;;;;;;;;;21.33;61.38;100625.94;5037370;28;1373;-43
2021/06/14 09:48:34;;;;;;;;;;;;;;;21.30;61.09;100610.97;5039213;28;1927;-43
2021/06/14 09:51:01;;;;;;;;;;;;;;;21.27;61.86;100616.66;5040513;28;1791;-43
2021/06/14 09:53:34;;;;;;;;;;;;;;;21.28;60.67;100623.72;5032114;28;1939;-46
2021/06/14 09:56:13;;;;;;;;;;;;;;;21.32;61.04;100602.75;5041923;28;1810;-45
2021/06/14 09:58:42;;;;;;;;;;;;;;;21.28;62.14;100610.28;5041831;28;1626;-46
2021/06/14 10:01:08;;;;;;;;;;;;;;;21.30;61.53;100613.66;5040965;28;1460;-45
2021/06/14 10:03:41;;;;;;;;;;;;;;;21.36;61.51;100598.75;5035711;28;1906;-44
2021/06/14 10:06:07;;;;;;;;;;;;;;;21.29;61.97;100601.22;5042198;28;1520;-45
2021/06/14 10:08:35;;;;;;;;;;;;;;;21.29;62.18;100622.75;5042108;28;1535;-45
2021/06/14 10:11:03;;;;;;;;;;;;;;;21.27;62.12;100619.34;5041523;28;1675;-44
2021/06/14 10:13:29;;;;;;;;;;;;;;;21.29;63.09;100622.75;5054123;28;1092;-44
2021/06/14 10:16:01;;;;;;;;;;;;;;;21.32;62.56;100614.34;5046116;28;1986;-45
2021/06/14 10:18:31;;;;;;;;;;;;;;;21.38;62.32;100626.34;5040739;28;1598;-45
2021/06/14 10:20:58;;;;;;;;;;;;;;;21.36;63.26;100612.19;5041282;28;2016;-44
2021/06/14 10:23:24;;;;;;;;;;;;;;;21.36;63.24;100625.66;5044592;28;1902;-45
2021/06/14 10:25:50;;;;;;;;;;;;;;;21.35;63.84;100619.44;5043922;28;1546;-44
2021/06/14 10:28:17;;;;;;;;;;;;;;;21.35;63.18;100623.97;5043013;28;1588;-44
2021/06/14 10:30:43;;;;;;;;;;;;;;;21.30;64.02;100635.16;5041369;28;1983;-45
2021/06/14 10:33:14;;;;;;;;;;;;;;;21.27;63.90;100643.56;5047790;28;1751;-44
2021/06/14 10:35:40;;;;;;;;;;;;;;;21.17;62.69;100651.69;5043387;28;1587;-44
2021/06/14 10:38:07;;;;;;;;;;;;;;;21.11;63.40;100660.38;5038568;28;1525;-44
2021/06/14 10:40:35;;;;;;;;;;;;;;;21.16;63.63;100649.16;5050095;28;1513;-45
2021/06/14 10:43:02;;;;;;;;;;;;;;;21.18;63.60;100660.59;5047469;28;1898;-44
2021/06/14 10:45:30;;;;;;;;;;;;;;;21.17;61.52;100648.13;5047082;28;1650;-45
2021/06/14 10:47:57;;;;;;;;;;;;;;;21.16;62.99;100663.44;5039539;28;1484;-44
2021/06/14 10:50:26;;;;;;;;;;;;;;;21.12;63.00;100645.91;5045276;28;1608;-44
2021/06/14 10:52:54;;;;;;;;;;;;;;;21.13;63.14;100649.44;5044829;28;1559;-45
2021/06/14 10:55:25;;;;;;;;;;;;;;;21.14;62.95;100643.09;5044570;28;1437;-44
2021/06/14 10:57:52;;;;;;;;;;;;;;;21.15;63.58;100644.75;5037275;28;1537;-45
2021/06/14 11:00:22;;;;;;;;;;;;;;;21.21;63.04;100644.19;5039209;28;1823;-45
2021/06/14 11:02:56;;;;;;;;;;;;;;;21.13;63.52;100631.50;5042458;28;1902;-46
2021/06/14 11:05:34;;;;;;;;;;;;;;;21.13;63.32;100652.13;5043335;28;2159;-45
2021/06/14 11:08:14;;;;;;;;;;;;;;;21.10;63.81;100636.31;5044925;28;1632;-45
2021/06/14 11:10:40;;;;;;;;;;;;;;;21.06;63.65;100646.53;5044738;28;1817;-45
2021/06/14 11:13:08;;;;;;;;;;;;;;;21.05;63.92;100644.84;5050574;28;1055;-45
2021/06/14 11:15:35;;;;;;;;;;;;;;;21.03;63.84;100644.16;5043390;28;1959;-45
2021/06/14 11:18:05;;;;;;;;;;;;;;;21.02;63.91;100653.22;5044027;28;1842;-44
2021/06/14 11:20:34;;;;;;;;;;;;;;;21.01;63.75;100652.38;5044113;28;1809;-45
2021/06/14 11:23:00;;;;;;;;;;;;;;;21.02;63.97;100659.44;5044928;28;1977;-45
2021/06/14 11:25:29;;;;;;;;;;;;;;;21.00;63.96;100658.72;5044384;28;1852;-45
2021/06/14 11:27:56;;;;;;;;;;;;;;;20.99;64.27;100649.00;5048403;28;1150;-45
2021/06/14 11:30:24;;;;;;;;;;;;;;;20.99;65.20;100656.19;5044505;28;1614;-44
2021/06/14 11:32:50;;;;;;;;;;;;;;;20.99;64.91;100659.75;5046186;28;2015;-45
2021/06/14 11:35:17;;;;;;;;;;;;;;;20.97;65.11;100661.75;5043496;28;1747;-45
2021/06/14 11:37:46;;;;;;;;;;;;;;;20.96;64.42;100654.66;5043091;28;1756;-45
2021/06/14 11:40:15;;;;;;;;;;;;;;;20.96;64.42;100651.97;5042279;28;1886;-45
2021/06/14 11:42:46;;;;;;;;;;;;;;;20.95;64.29;100649.44;5045770;28;1972;-44
2021/06/14 11:45:24;;;;;;;;;;;;;;;20.95;65.13;100641.38;5045763;28;1994;-45
2021/06/14 11:47:51;;;;;;;;;;;;;;;20.94;64.31;100643.22;5044480;28;1676;-44
2021/06/14 11:50:21;;;;;;;;;;;;;;;20.96;64.85;100640.38;5043499;28;2212;-44
2021/06/14 11:52:55;;;;;;;;;;;;;;;20.96;64.27;100632.31;5043638;28;1616;-45
2021/06/14 11:55:22;;;;;;;;;;;;;;;20.95;65.24;100634.16;5043897;28;1822;-45
2021/06/14 11:57:54;;;;;;;;;;;;;;;20.96;64.43;100625.09;5046492;28;1083;-44
2021/06/14 12:00:26;;;;;;;;;;;;;;;20.96;64.44;100625.09;5044132;28;1613;-44
2021/06/14 12:02:52;;;;;;;;;;;;;;;20.94;64.31;100627.09;5043828;28;1985;-45
2021/06/14 12:05:29;;;;;;;;;;;;;;;20.94;64.95;100632.47;5043698;28;1858;-45
2021/06/14 12:07:56;;;;;;;;;;;;;;;20.93;64.97;100622.72;5043750;28;1863;-45
2021/06/14 12:10:23;;;;;;;;;;;;;;;20.94;64.78;100624.41;5043642;28;1695;-45
2021/06/14 12:13:01;;;;;;;;;;;;;;;20.93;65.14;100614.66;5046633;28;1075;-45
2021/06/14 12:15:27;;;;;;;;;;;;;;;20.94;65.00;100605.59;5043067;28;1987;-44
2021/06/14 12:17:54;;;;;;;;;;;;;;;20.94;65.01;100607.44;5043626;28;1798;-44
2021/06/14 12:20:23;;;;;;;;;;;;;;;20.94;64.95;100610.13;5043530;28;1934;-45
2021/06/14 12:22:50;;;;;;;;;;;;;;;20.95;64.63;100601.03;5043260;28;1910;-45
2021/06/14 12:25:18;;;;;;;;;;;;;;;20.94;64.18;100596.69;5043167;28;1613;-45
2021/06/14 12:27:44;;;;;;;;;;;;;;;20.92;64.39;100599.50;5037129;28;1132;-44
2021/06/14 12:30:12;;;;;;;;;;;;;;;20.92;64.95;100607.56;5044164;28;2265;-45
2021/06/14 12:32:39;;;;;;;;;;;;;;;20.92;64.94;100601.38;5045120;28;1810;-44
2021/06/14 12:35:07;;;;;;;;;;;;;;;20.92;64.06;100590.63;5041771;28;1702;-45
2021/06/14 12:37:33;;;;;;;;;;;;;;;20.93;65.03;100595.84;5040671;28;2148;-44
2021/06/14 12:40:01;;;;;;;;;;;;;;;20.92;64.96;100596.81;5040899;28;1907;-46
2021/06/14 12:42:29;;;;;;;;;;;;;;;20.93;64.54;100590.47;5045006;28;1905;-45
2021/06/14 12:44:56;;;;;;;;;;;;;;;20.93;64.03;100592.28;5047216;28;1860;-45
2021/06/14 12:47:23;;;;;;;;;;;;;;;20.92;64.44;100596.81;5043050;28;1914;-45
2021/06/14 12:49:50;;;;;;;;;;;;;;;20.94;63.96;100599.38;5041995;28;1860;-45
2021/06/14 12:52:17;;;;;;;;;;;;;;;20.92;64.66;100596.81;5040985;28;1808;-45
2021/06/14 12:54:44;;;;;;;;;;;;;;;20.92;63.54;100591.44;5020674;28;1442;-45
2021/06/14 12:57:10;;;;;;;;;;;;;;;20.93;64.52;100595.84;5017497;28;1131;-45
2021/06/14 12:59:38;;;;;;;;;;;;;;;20.95;63.75;100585.78;5017871;28;1945;-45